Time;durP1;ratioP1;P1;durP2;ratioP2;P2;SDS_P1;SDS_P2;PMS_P1;PMS_P2;Temp;Humidity;BMP_temperature;BMP_pressure;BME280_temperature;BME280_humidity;BME280_pressure;Samples;Min_cycle;Max_cycle;Signal;HPM_P1;HPM_P2
2022/01/26 00:07:45;;;;;;;96.88;31.77;;;3.10;99.90;;;;;;5022026;28;20379;-76
2022/01/26 00:10:11;;;;;;;102.30;34.13;;;3.00;99.90;;;;;;5017810;28;20048;-77
2022/01/26 00:12:36;;;;;;;105.63;34.20;;;3.00;99.90;;;;;;4993746;28;20061;-77
2022/01/26 00:15:02;;;;;;;103.53;33.00;;;3.00;99.90;;;;;;5022309;28;20049;-77
2022/01/26 00:17:28;;;;;;;108.50;36.40;;;3.00;99.90;;;;;;5005388;28;20045;-77
2022/01/26 00:20:01;;;;;;;109.15;35.42;;;3.00;99.90;;;;;;5006161;28;20045;-77
2022/01/26 00:38:38;;;;;;;101.50;32.30;;;3.00;99.90;;;;;;5025273;28;20469;-77
2022/01/26 00:41:08;;;;;;;101.65;32.90;;;3.00;99.90;;;;;;5012838;28;20042;-77
2022/01/26 00:43:35;;;;;;;104.93;33.90;;;3.00;99.90;;;;;;5026984;28;20128;-77
2022/01/26 00:46:03;;;;;;;108.05;34.35;;;3.00;99.90;;;;;;5015610;28;20076;-77
2022/01/26 00:48:31;;;;;;;111.63;32.38;;;3.00;99.90;;;;;;5014281;28;20107;-78
2022/01/26 00:51:02;;;;;;;105.78;33.42;;;3.00;99.90;;;;;;5020829;28;20124;-78
2022/01/26 00:53:54;;;;;;;102.78;34.53;;;3.40;99.90;;;;;;5010611;28;20060;-78
2022/01/26 00:56:14;;;;;;;103.93;34.15;;;3.00;99.90;;;;;;5011839;28;20397;-77
2022/01/26 00:58:40;;;;;;;109.80;34.05;;;3.00;99.90;;;;;;5027516;28;20528;-78
2022/01/26 01:01:06;;;;;;;106.95;35.05;;;3.00;99.90;;;;;;5015373;28;20112;-78
2022/01/26 01:03:36;;;;;;;111.97;34.90;;;3.00;99.90;;;;;;5019925;28;20041;-78
2022/01/26 01:06:09;;;;;;;105.50;34.63;;;3.00;99.90;;;;;;5008025;28;20104;-79
2022/01/26 01:08:35;;;;;;;109.68;35.65;;;3.00;99.90;;;;;;5016942;28;20052;-78
2022/01/26 01:11:01;;;;;;;102.07;31.98;;;2.90;99.90;;;;;;5023668;28;20041;-78
2022/01/26 01:13:35;;;;;;;102.07;31.23;;;2.90;99.90;;;;;;5014851;28;20045;-77
2022/01/26 01:16:01;;;;;;;103.00;32.15;;;2.90;99.90;;;;;;5030116;28;20033;-77
2022/01/26 01:31:17;;;;;;;107.95;32.45;;;2.90;99.90;;;;;;5013788;28;20057;-78
2022/01/26 01:33:46;;;;;;;106.25;32.75;;;2.90;99.90;;;;;;5019010;28;20133;-77
2022/01/26 01:36:12;;;;;;;107.07;33.25;;;2.90;99.90;;;;;;5013329;28;20744;-78
2022/01/26 01:38:42;;;;;;;102.45;32.90;;;2.80;99.90;;;;;;5034752;28;20041;-77
2022/01/26 01:41:09;;;;;;;97.07;31.48;;;2.80;99.90;;;;;;5041366;28;20044;-78
2022/01/26 01:43:35;;;;;;;101.07;33.90;;;2.80;99.90;;;;;;5014444;28;20064;-77
2022/01/26 01:46:01;;;;;;;98.63;33.55;;;2.80;99.90;;;;;;5007543;28;20054;-79
2022/01/26 01:48:30;;;;;;;98.53;32.28;;;2.80;99.90;;;;;;5033775;28;21459;-77
2022/01/26 01:50:59;;;;;;;101.75;32.20;;;2.80;99.90;;;;;;5006427;28;20053;-77
2022/01/26 01:53:34;;;;;;;104.05;34.88;;;2.80;99.90;;;;;;5036685;28;20541;-77
2022/01/26 01:56:03;;;;;;;110.00;33.15;;;2.80;99.90;;;;;;5004765;28;20034;-77
2022/01/26 01:58:29;;;;;;;111.75;36.35;;;3.20;99.90;;;;;;5006875;28;20406;-77
2022/01/26 02:00:56;;;;;;;100.03;32.40;;;2.80;99.90;;;;;;4996009;28;20363;-77
2022/01/26 02:03:22;;;;;;;103.93;31.08;;;2.80;99.90;;;;;;5014970;28;20053;-77
2022/01/26 02:05:48;;;;;;;109.50;34.67;;;2.80;99.90;;;;;;5021948;28;20262;-77
2022/01/26 02:08:14;;;;;;;110.72;33.25;;;2.80;99.90;;;;;;5030167;28;20045;-77
2022/01/26 02:10:39;;;;;;;103.05;32.15;;;2.80;99.90;;;;;;5017308;28;20075;-77
2022/01/26 02:13:21;;;;;;;110.05;34.60;;;2.80;99.90;;;;;;5002557;28;20054;-77
2022/01/26 02:18:35;;;;;;;;;;;2.80;99.90;;;;;;5020639;28;20050;-77
2022/01/26 02:56:23;;;;;;;101.55;34.50;;;2.80;99.90;;;;;;5024645;28;20058;-77
2022/01/26 03:01:44;;;;;;;113.80;35.75;;;2.80;99.90;;;;;;5004783;28;20038;-77
2022/01/26 03:04:55;;;;;;;97.57;35.25;;;2.80;99.90;;;;;;5003994;28;20053;-77
2022/01/26 03:07:09;;;;;;;98.65;34.20;;;2.80;99.90;;;;;;5002684;28;20402;-77
2022/01/26 03:09:41;;;;;;;94.60;33.60;;;2.80;99.90;;;;;;5019611;28;20073;-77
2022/01/26 03:12:09;;;;;;;107.10;33.83;;;2.80;99.90;;;;;;5005436;28;20445;-77
2022/01/26 03:17:21;;;;;;;94.70;32.92;;;2.80;99.90;;;;;;5011573;28;21870;-77
2022/01/26 03:19:51;;;;;;;102.32;32.90;;;2.80;99.90;;;;;;4999406;28;20057;-77
2022/01/26 03:30:07;;;;;;;95.38;33.70;;;3.30;99.90;;;;;;5012709;28;20483;-77
2022/01/26 03:35:04;;;;;;;97.03;31.52;;;2.80;99.90;;;;;;5008396;28;20381;-77
2022/01/26 03:37:37;;;;;;;99.15;33.53;;;2.80;99.90;;;;;;5012220;28;20093;-77
2022/01/26 03:40:12;;;;;;;104.30;33.70;;;2.80;99.90;;;;;;5010713;28;20053;-77
2022/01/26 03:42:38;;;;;;;90.05;31.63;;;2.80;99.90;;;;;;5010452;28;20478;-77
2022/01/26 03:45:04;;;;;;;97.00;32.97;;;2.80;99.90;;;;;;5016007;28;20045;-77
2022/01/26 03:47:30;;;;;;;91.25;30.92;;;2.80;99.90;;;;;;5027415;28;20119;-77
2022/01/26 03:49:55;;;;;;;88.65;29.83;;;2.80;99.90;;;;;;5015944;28;20057;-77
2022/01/26 03:52:21;;;;;;;90.95;33.55;;;2.80;99.90;;;;;;5006147;28;20767;-77
2022/01/26 03:54:47;;;;;;;91.53;31.60;;;2.80;99.90;;;;;;4989412;28;20305;-77
2022/01/26 03:57:12;;;;;;;86.20;31.08;;;2.80;99.90;;;;;;5003401;28;20037;-77
2022/01/26 03:59:38;;;;;;;92.68;32.17;;;2.80;99.90;;;;;;5017999;28;20091;-77
2022/01/26 04:02:04;;;;;;;92.43;30.85;;;2.80;99.90;;;;;;5007019;28;20049;-78
2022/01/26 04:04:36;;;;;;;84.97;30.73;;;2.80;99.90;;;;;;5011772;28;20030;-77
2022/01/26 04:07:02;;;;;;;90.95;32.80;;;2.80;99.90;;;;;;5007551;28;20060;-77
2022/01/26 04:09:28;;;;;;;81.72;31.50;;;2.80;99.90;;;;;;5017353;28;20045;-77
2022/01/26 04:11:53;;;;;;;90.47;30.67;;;2.80;99.90;;;;;;5017524;28;20114;-77
2022/01/26 04:14:24;;;;;;;86.25;31.52;;;2.70;99.90;;;;;;5023365;28;20044;-77
2022/01/26 04:16:49;;;;;;;89.20;32.53;;;2.70;99.90;;;;;;5026519;28;20118;-77
2022/01/26 04:19:16;;;;;;;92.18;33.13;;;2.70;99.90;;;;;;5010084;28;20049;-76
2022/01/26 04:24:20;;;;;;;81.80;30.02;;;2.70;99.90;;;;;;5018068;28;20052;-77
2022/01/26 04:26:56;;;;;;;87.63;29.50;;;2.70;99.90;;;;;;5023523;28;20049;-77
2022/01/26 04:29:27;;;;;;;82.05;30.85;;;2.70;99.90;;;;;;5011606;28;20103;-77
2022/01/26 04:31:53;;;;;;;89.43;29.20;;;2.70;99.90;;;;;;5023912;28;20056;-76
2022/01/26 04:34:19;;;;;;;80.40;28.48;;;2.70;99.90;;;;;;5016343;28;20041;-76
2022/01/26 04:36:53;;;;;;;81.50;29.88;;;2.70;99.90;;;;;;5003089;28;20073;-77
2022/01/26 04:39:25;;;;;;;83.55;30.73;;;2.70;99.90;;;;;;5008029;28;20104;-77
2022/01/26 04:41:59;;;;;;;91.30;31.13;;;2.70;99.90;;;;;;5023727;28;20132;-76
2022/01/26 04:44:29;;;;;;;75.60;29.23;;;2.70;99.90;;;;;;5003166;28;20049;-77
2022/01/26 04:46:55;;;;;;;81.75;28.23;;;2.60;99.90;;;;;;5003265;28;20495;-77
2022/01/26 04:49:21;;;;;;;78.78;29.60;;;2.60;99.90;;;;;;5009942;28;21747;-77
2022/01/26 04:51:47;;;;;;;83.45;28.05;;;2.60;99.90;;;;;;5013615;28;20129;-77
2022/01/26 04:54:13;;;;;;;78.40;28.70;;;2.60;99.90;;;;;;5002090;28;20668;-77
2022/01/26 04:56:39;;;;;;;76.60;27.27;;;2.60;99.90;;;;;;5018028;28;20148;-76
2022/01/26 04:59:05;;;;;;;83.70;29.50;;;2.60;99.90;;;;;;5014931;28;20940;-78
2022/01/26 05:01:31;;;;;;;80.53;29.45;;;2.60;99.90;;;;;;5036418;28;20108;-77
2022/01/26 05:03:56;;;;;;;77.28;27.20;;;2.60;99.90;;;;;;5030883;28;20095;-77
2022/01/26 05:06:22;;;;;;;73.35;26.00;;;2.60;99.90;;;;;;5021920;28;20113;-77
2022/01/26 05:08:48;;;;;;;77.80;27.40;;;2.60;99.90;;;;;;5011767;28;20418;-77
2022/01/26 05:11:20;;;;;;;73.72;26.33;;;2.60;99.90;;;;;;5018980;28;20057;-77
2022/01/26 05:13:45;;;;;;;77.70;28.33;;;2.60;99.90;;;;;;5003995;28;20083;-77
2022/01/26 05:16:11;;;;;;;78.88;27.30;;;2.60;99.90;;;;;;5021415;28;20487;-76
2022/01/26 05:18:37;;;;;;;83.45;29.13;;;2.60;99.90;;;;;;5018280;28;20054;-77
2022/01/26 05:21:03;;;;;;;83.95;27.45;;;2.50;99.90;;;;;;5006194;28;20124;-77
2022/01/26 05:23:29;;;;;;;76.18;27.60;;;2.50;99.90;;;;;;5017433;28;20059;-78
2022/01/26 05:25:54;;;;;;;78.32;27.20;;;2.60;99.90;;;;;;5042978;28;20057;-77
2022/01/26 05:28:20;;;;;;;70.32;25.73;;;2.50;99.90;;;;;;5023806;28;20643;-77
2022/01/26 05:30:45;;;;;;;74.10;27.45;;;2.50;99.90;;;;;;5022590;28;20049;-77
2022/01/26 05:33:11;;;;;;;74.57;26.52;;;2.50;99.90;;;;;;5042419;28;20092;-76
2022/01/26 05:35:37;;;;;;;74.95;26.48;;;2.50;99.90;;;;;;5016477;28;20080;-77
2022/01/26 05:38:03;;;;;;;72.90;27.33;;;2.50;99.90;;;;;;5026482;28;20046;-77
2022/01/26 05:40:28;;;;;;;75.13;26.55;;;2.50;99.90;;;;;;5027808;28;20114;-77
2022/01/26 05:42:54;;;;;;;78.32;27.55;;;2.50;99.90;;;;;;5040117;28;20140;-77
2022/01/26 05:45:28;;;;;;;82.88;27.42;;;2.50;99.90;;;;;;5025996;28;20413;-78
2022/01/26 05:47:54;;;;;;;73.13;26.45;;;2.50;99.90;;;;;;5003393;28;20057;-77
2022/01/26 05:50:21;;;;;;;79.45;28.17;;;2.50;99.90;;;;;;5021557;28;20050;-76
2022/01/26 05:52:47;;;;;;;73.22;26.27;;;2.50;99.90;;;;;;5009503;28;20476;-76
2022/01/26 05:55:13;;;;;;;69.82;25.48;;;2.50;99.90;;;;;;5021473;28;20303;-76
2022/01/26 05:57:39;;;;;;;76.18;26.40;;;2.50;99.90;;;;;;5002907;28;20045;-77
2022/01/26 06:00:06;;;;;;;74.15;25.67;;;2.50;99.90;;;;;;5007099;28;20045;-77
2022/01/26 06:02:32;;;;;;;73.38;25.65;;;2.50;99.90;;;;;;4996904;28;20054;-76
2022/01/26 06:04:58;;;;;;;70.80;25.75;;;2.50;99.90;;;;;;4993634;28;20132;-77
2022/01/26 06:07:24;;;;;;;73.50;26.55;;;2.50;99.90;;;;;;5007587;28;21337;-77
2022/01/26 06:09:49;;;;;;;81.03;27.55;;;2.50;99.90;;;;;;5002526;28;20140;-78
2022/01/26 06:12:15;;;;;;;75.90;26.77;;;2.50;99.90;;;;;;5008962;28;20042;-76
2022/01/26 06:14:41;;;;;;;69.97;26.23;;;2.50;99.90;;;;;;5014440;28;20604;-76
2022/01/26 06:17:07;;;;;;;79.60;27.88;;;2.50;99.90;;;;;;4992257;28;20049;-76
2022/01/26 06:19:33;;;;;;;69.32;25.33;;;2.50;99.90;;;;;;4987595;28;20041;-76
2022/01/26 06:21:59;;;;;;;78.85;27.90;;;2.50;99.90;;;;;;5002141;28;20053;-77
2022/01/26 06:24:25;;;;;;;75.03;26.35;;;2.50;99.90;;;;;;5003358;28;20528;-77
2022/01/26 06:26:50;;;;;;;74.03;24.98;;;2.50;99.90;;;;;;4999653;28;20045;-77
2022/01/26 06:29:16;;;;;;;79.20;27.13;;;2.60;99.90;;;;;;5006437;28;20057;-76
2022/01/26 06:31:43;;;;;;;70.63;26.35;;;2.50;99.90;;;;;;4998155;28;20057;-77
2022/01/26 06:34:14;;;;;;;73.03;28.88;;;1.80;99.90;;;;;;5017648;28;20050;-76
2022/01/26 06:36:43;;;;;;;75.22;28.20;;;2.50;99.90;;;;;;5003600;28;20077;-76
2022/01/26 06:39:11;;;;;;;79.88;29.13;;;2.50;99.90;;;;;;4985998;28;20407;-77
2022/01/26 06:41:37;;;;;;;82.80;28.50;;;2.50;99.90;;;;;;5024838;28;20045;-76
2022/01/26 06:44:15;;;;;;;78.03;27.20;;;2.50;99.90;;;;;;5014249;28;20076;-76
2022/01/26 06:47:01;;;;;;;81.22;28.23;;;2.50;99.90;;;;;;5022108;28;20364;-77
2022/01/26 06:49:29;;;;;;;78.00;28.08;;;2.50;99.90;;;;;;5000853;28;20120;-76
2022/01/26 06:51:56;;;;;;;78.93;29.00;;;2.50;99.90;;;;;;4989796;28;20479;-77
2022/01/26 06:54:21;;;;;;;85.63;30.15;;;2.50;99.90;;;;;;4984412;28;20553;-77
2022/01/26 06:56:47;;;;;;;79.25;28.67;;;2.50;99.90;;;;;;4992613;28;20049;-77
2022/01/26 06:59:13;;;;;;;79.38;28.98;;;2.50;99.90;;;;;;5002817;28;20034;-77
2022/01/26 07:01:40;;;;;;;81.00;28.33;;;2.50;99.90;;;;;;5004240;28;20046;-77
2022/01/26 07:04:06;;;;;;;83.43;30.95;;;2.50;99.90;;;;;;4999253;28;20518;-77
2022/01/26 07:06:32;;;;;;;85.10;30.15;;;2.50;99.90;;;;;;5000980;28;20044;-75
2022/01/26 07:08:57;;;;;;;91.68;31.67;;;2.50;99.90;;;;;;5008558;28;20118;-75
2022/01/26 07:11:23;;;;;;;77.32;28.08;;;2.50;99.90;;;;;;5015032;28;20068;-77
2022/01/26 07:13:52;;;;;;;84.95;30.85;;;2.60;99.90;;;;;;5014793;28;20053;-77
2022/01/26 07:21:46;;;;;;;84.95;32.33;;;2.60;99.90;;;;;;5004093;28;20064;-76
2022/01/26 07:24:12;;;;;;;86.63;29.88;;;2.60;99.90;;;;;;5026562;28;20038;-76
2022/01/26 07:26:38;;;;;;;93.65;32.38;;;2.50;99.90;;;;;;5026959;28;20076;-77
2022/01/26 07:29:11;;;;;;;92.30;31.83;;;2.60;99.90;;;;;;5006579;28;20064;-77
2022/01/26 07:31:46;;;;;;;84.55;30.25;;;2.60;99.90;;;;;;5010182;28;20041;-77
2022/01/26 07:34:14;;;;;;;85.40;31.63;;;2.60;99.90;;;;;;5013899;28;20095;-77
2022/01/26 07:36:44;;;;;;;87.50;32.88;;;2.60;99.90;;;;;;5022863;28;20067;-77
2022/01/26 07:39:14;;;;;;;85.40;31.60;;;2.60;99.90;;;;;;5017798;28;20561;-77
2022/01/26 07:41:40;;;;;;;90.22;32.70;;;2.60;99.90;;;;;;5001793;28;20042;-77
2022/01/26 07:44:06;;;;;;;91.50;34.63;;;2.60;99.90;;;;;;5020841;28;20116;-77
2022/01/26 07:46:32;;;;;;;90.68;32.50;;;2.60;99.90;;;;;;5018400;28;20041;-76
2022/01/26 07:48:58;;;;;;;91.15;33.17;;;2.60;99.90;;;;;;5017385;28;20081;-78
2022/01/26 07:51:24;;;;;;;97.88;35.55;;;2.70;99.90;;;;;;5030123;28;20987;-77
2022/01/26 07:53:50;;;;;;;93.30;34.28;;;2.60;99.90;;;;;;5011801;28;20037;-76
2022/01/26 07:56:16;;;;;;;93.65;34.78;;;2.70;99.90;;;;;;5009797;28;20045;-76
2022/01/26 07:58:42;;;;;;;102.25;37.55;;;2.70;99.90;;;;;;5005301;28;20053;-77
2022/01/26 08:01:08;;;;;;;95.55;36.72;;;2.70;99.90;;;;;;5008810;28;20072;-77
2022/01/26 08:03:34;;;;;;;102.72;37.25;;;2.70;99.90;;;;;;5002841;28;20092;-77
2022/01/26 08:06:01;;;;;;;94.18;34.17;;;2.80;99.90;;;;;;5015628;28;20049;-77
2022/01/26 08:08:28;;;;;;;97.13;36.80;;;2.80;99.90;;;;;;5031152;28;20102;-76
2022/01/26 08:10:55;;;;;;;98.20;36.15;;;2.80;99.90;;;;;;5014259;28;20052;-77
2022/01/26 08:13:20;;;;;;;102.68;38.30;;;2.80;99.90;;;;;;5021243;28;20111;-77
2022/01/26 08:15:46;;;;;;;108.82;37.03;;;2.80;99.90;;;;;;5002991;28;20410;-76
2022/01/26 08:18:12;;;;;;;99.55;35.10;;;2.80;99.90;;;;;;5004323;28;20060;-76
2022/01/26 08:20:40;;;;;;;96.60;37.03;;;2.80;99.90;;;;;;5009885;28;20478;-76
2022/01/26 08:23:06;;;;;;;104.20;37.72;;;2.90;99.90;;;;;;5006160;28;20409;-77
2022/01/26 08:25:32;;;;;;;106.50;38.92;;;2.90;99.90;;;;;;5012941;28;20048;-76
2022/01/26 08:28:49;;;;;;;103.35;39.25;;;2.90;99.90;;;;;;4992784;28;20049;-77
2022/01/26 08:30:44;;;;;;;107.40;37.58;;;2.90;99.90;;;;;;5013638;28;20041;-77
2022/01/26 08:33:10;;;;;;;106.00;38.38;;;2.90;99.90;;;;;;5031967;28;20037;-76
2022/01/26 08:35:36;;;;;;;98.53;36.50;;;2.90;99.90;;;;;;5016388;28;20294;-76
2022/01/26 08:38:03;;;;;;;106.78;39.45;;;3.00;99.90;;;;;;5015776;28;20111;-76
2022/01/26 08:40:30;;;;;;;103.78;37.42;;;3.00;99.90;;;;;;5007572;28;20096;-76
2022/01/26 08:42:56;;;;;;;101.10;39.28;;;3.00;99.90;;;;;;5000085;28;20060;-76
2022/01/26 08:45:22;;;;;;;109.45;40.05;;;3.00;99.90;;;;;;4997204;28;20522;-76
2022/01/26 08:47:49;;;;;;;99.28;37.60;;;3.00;99.90;;;;;;5025968;28;20165;-78
2022/01/26 08:50:16;;;;;;;105.50;40.38;;;3.00;99.90;;;;;;5001376;28;20045;-77
2022/01/26 08:52:41;;;;;;;109.68;41.55;;;3.10;99.90;;;;;;5018181;28;20657;-76
2022/01/26 08:55:07;;;;;;;95.18;37.40;;;3.10;99.90;;;;;;5037351;28;20128;-76
2022/01/26 08:57:33;;;;;;;102.18;37.95;;;3.10;99.90;;;;;;5019966;28;20140;-77
2022/01/26 09:00:00;;;;;;;101.72;38.65;;;3.10;99.90;;;;;;5032461;28;20133;-77
2022/01/26 09:02:26;;;;;;;104.13;37.85;;;3.20;99.90;;;;;;5019364;28;20410;-76
2022/01/26 09:04:52;;;;;;;98.97;38.63;;;3.20;99.90;;;;;;5013882;28;20502;-77
2022/01/26 09:07:20;;;;;;;95.90;37.83;;;3.20;99.90;;;;;;5014022;28;20045;-77
2022/01/26 09:09:46;;;;;;;91.55;37.20;;;3.20;99.90;;;;;;5018252;28;21701;-76
2022/01/26 09:12:14;;;;;;;97.05;36.53;;;3.30;99.90;;;;;;5029988;28;20107;-77
2022/01/26 09:14:41;;;;;;;90.18;36.63;;;3.30;99.90;;;;;;5017525;28;20099;-76
2022/01/26 09:17:08;;;;;;;90.32;37.58;;;3.30;99.90;;;;;;5019133;28;20089;-76
2022/01/26 09:19:35;;;;;;;86.80;37.50;;;3.30;99.90;;;;;;5018536;28;20049;-76
2022/01/26 09:22:09;;;;;;;80.88;36.95;;;3.40;99.90;;;;;;5016260;28;20453;-77
2022/01/26 09:24:37;;;;;;;81.40;35.50;;;3.40;99.90;;;;;;5002088;28;20056;-76
2022/01/26 09:27:06;;;;;;;87.70;36.28;;;3.40;99.90;;;;;;5032338;28;20348;-76
2022/01/26 09:29:32;;;;;;;89.90;36.00;;;3.40;99.90;;;;;;5018703;28;20037;-76
2022/01/26 09:31:59;;;;;;;86.50;36.45;;;3.40;99.90;;;;;;5035053;28;20045;-76
2022/01/26 09:34:28;;;;;;;90.32;36.90;;;3.50;99.90;;;;;;5002974;28;20601;-76
2022/01/26 09:36:54;;;;;;;89.63;34.58;;;3.50;99.90;;;;;;5017564;28;20100;-76
2022/01/26 09:39:21;;;;;;;76.90;34.72;;;3.50;99.90;;;;;;5003694;28;20128;-76
2022/01/26 09:41:48;;;;;;;86.75;36.70;;;3.50;99.90;;;;;;5034773;28;20041;-76
2022/01/26 09:44:15;;;;;;;89.88;36.83;;;3.60;99.90;;;;;;5034880;28;20120;-76
2022/01/26 09:46:41;;;;;;;84.65;34.72;;;3.60;99.90;;;;;;5017651;28;20116;-76
2022/01/26 09:49:08;;;;;;;92.13;37.13;;;3.60;99.90;;;;;;5002601;28;20045;-76
2022/01/26 09:51:40;;;;;;;90.00;37.13;;;3.60;99.90;;;;;;5020350;28;20467;-76
2022/01/26 09:54:13;;;;;;;84.80;35.58;;;3.60;99.90;;;;;;5019610;28;20052;-76
2022/01/26 09:56:39;;;;;;;85.13;34.75;;;3.70;99.90;;;;;;5004456;28;20151;-76
2022/01/26 09:59:08;;;;;;;84.82;34.58;;;3.60;99.90;;;;;;5035981;28;20053;-76
2022/01/26 10:01:48;;;;;;;78.55;34.40;;;3.70;99.90;;;;;;5019330;28;20041;-76
2022/01/26 10:04:37;;;;;;;86.10;34.78;;;3.70;99.90;;;;;;5037103;28;20045;-76
2022/01/26 10:07:45;;;;;;;89.50;34.65;;;3.70;99.90;;;;;;5031191;28;20909;-76
2022/01/26 10:15:37;;;;;;;;;;;3.80;99.90;;;;;;5036939;28;20059;-76
2022/01/26 10:18:13;;;;;;;74.88;29.73;;;3.80;99.90;;;;;;5004943;28;19925;-76
2022/01/26 10:20:48;;;;;;;79.38;33.20;;;3.80;99.90;;;;;;5034587;28;20049;-76
2022/01/26 10:23:28;;;;;;;77.28;31.58;;;3.80;99.90;;;;;;5035493;28;20169;-76
2022/01/26 10:26:12;;;;;;;73.95;31.75;;;3.90;99.90;;;;;;5018759;28;20724;-77
2022/01/26 10:28:48;;;;;;;71.65;29.75;;;3.90;99.90;;;;;;5018759;28;20042;-75
2022/01/26 10:31:19;;;;;;;70.90;30.23;;;3.90;99.90;;;;;;5034919;28;20038;-76
2022/01/26 10:33:58;;;;;;;75.88;31.52;;;3.90;99.90;;;;;;5020332;28;20045;-76
2022/01/26 10:36:49;;;;;;;73.05;30.17;;;3.90;99.90;;;;;;5002363;28;20056;-76
2022/01/26 10:39:24;;;;;;;77.00;31.52;;;4.00;99.90;;;;;;5036492;28;20072;-76
2022/01/26 10:41:53;;;;;;;72.32;30.30;;;4.00;99.90;;;;;;5003724;28;20153;-76
2022/01/26 10:44:41;;;;;;;75.13;32.00;;;4.00;99.90;;;;;;5018450;28;20041;-76
2022/01/26 10:47:08;;;;;;;72.15;30.45;;;4.00;99.90;;;;;;5018844;28;20053;-75
2022/01/26 10:54:53;;;;;;;65.40;27.92;;;4.10;99.90;;;;;;5034388;28;20517;-76
2022/01/26 10:57:19;;;;;;;67.75;29.77;;;4.10;99.90;;;;;;5002228;28;20045;-76
2022/01/26 10:59:47;;;;;;;68.00;28.92;;;4.10;99.90;;;;;;5018553;28;20036;-76
2022/01/26 11:02:19;;;;;;;71.05;27.95;;;4.20;99.90;;;;;;5017712;28;20042;-75
2022/01/26 11:04:45;;;;;;;72.07;29.05;;;4.10;99.90;;;;;;5019259;28;20045;-76
2022/01/26 11:07:13;;;;;;;69.22;27.77;;;4.10;99.90;;;;;;5019707;28;20061;-76
2022/01/26 11:09:49;;;;;;;72.13;29.55;;;4.10;99.90;;;;;;5017845;28;20255;-76
2022/01/26 11:12:26;;;;;;;67.80;29.42;;;4.10;99.90;;;;;;4994895;28;20050;-76
2022/01/26 11:14:57;;;;;;;70.93;28.83;;;4.10;99.90;;;;;;5021597;28;20053;-75
2022/01/26 11:17:34;;;;;;;68.65;28.42;;;4.00;99.90;;;;;;5027346;28;20052;-76
2022/01/26 11:20:03;;;;;;;75.30;28.30;;;4.10;99.90;;;;;;5018245;28;20529;-75
2022/01/26 11:22:31;;;;;;;76.80;29.83;;;4.10;99.90;;;;;;5017984;28;20550;-75
2022/01/26 11:25:11;;;;;;;69.68;29.20;;;4.10;99.90;;;;;;5024678;28;20625;-76
2022/01/26 11:27:40;;;;;;;70.60;28.42;;;4.10;99.90;;;;;;5020437;28;20481;-76
2022/01/26 11:30:29;;;;;;;70.05;28.38;;;4.10;99.90;;;;;;5015866;28;20059;-75
2022/01/26 11:33:02;;;;;;;73.15;27.08;;;4.20;99.90;;;;;;5033454;28;20471;-75
2022/01/26 11:35:35;;;;;;;70.07;29.02;;;4.20;99.90;;;;;;5034456;28;20136;-76
2022/01/26 11:38:51;;;;;;;73.75;30.92;;;4.20;99.90;;;;;;5033982;28;20049;-76
2022/01/26 11:47:03;;;;;;;78.07;31.45;;;4.30;99.90;;;;;;5027978;28;20049;-76
2022/01/26 11:49:33;;;;;;;74.38;30.95;;;4.20;99.90;;;;;;5014744;28;20041;-76
2022/01/26 11:51:59;;;;;;;72.60;30.63;;;4.30;99.90;;;;;;5033773;28;20057;-75
2022/01/26 11:54:51;;;;;;;81.32;31.10;;;4.20;99.90;;;;;;5017397;28;20045;-76
2022/01/26 11:57:19;;;;;;;73.93;30.30;;;4.20;99.90;;;;;;5013983;28;20052;-75
2022/01/26 11:59:58;;;;;;;77.07;31.35;;;4.20;99.90;;;;;;5026992;28;20044;-75
2022/01/26 12:02:49;;;;;;;76.63;30.85;;;4.30;99.90;;;;;;5008483;28;20045;-76
2022/01/26 12:05:20;;;;;;;80.03;31.83;;;4.30;99.90;;;;;;5014930;28;20041;-76
2022/01/26 12:07:57;;;;;;;77.22;31.83;;;4.30;99.90;;;;;;5018087;28;20041;-76
2022/01/26 12:10:32;;;;;;;77.82;31.13;;;4.30;99.90;;;;;;5017506;28;20053;-76
2022/01/26 12:13:10;;;;;;;79.93;31.00;;;4.30;99.90;;;;;;5017175;28;20045;-76
2022/01/26 12:15:43;;;;;;;70.50;30.50;;;4.30;99.90;;;;;;5014594;28;20041;-76
2022/01/26 12:32:20;;;;;;;78.10;31.05;;;4.40;99.90;;;;;;4962995;28;21779;-76
2022/01/26 12:34:53;;;;;;;81.80;30.73;;;4.40;99.90;;;;;;5014198;28;20053;-75
2022/01/26 12:45:24;;;;;;;72.38;29.70;;;4.40;99.90;;;;;;5004063;28;20081;-76
2022/01/26 12:47:51;;;;;;;67.95;28.67;;;4.50;99.90;;;;;;5032589;28;20052;-76
2022/01/26 12:50:18;;;;;;;73.68;31.02;;;4.40;99.90;;;;;;5011803;28;20211;-76
2022/01/26 12:52:50;;;;;;;75.30;31.40;;;4.50;99.90;;;;;;5019647;28;20045;-76
2022/01/26 12:55:37;;;;;;;69.90;27.73;;;4.50;99.90;;;;;;5022393;28;20045;-76
2022/01/26 12:58:06;;;;;;;72.13;29.52;;;4.50;99.90;;;;;;4998098;28;20057;-76
2022/01/26 13:01:07;;;;;;;74.30;30.40;;;4.50;99.90;;;;;;5021083;28;20128;-75
2022/01/26 13:03:46;;;;;;;71.88;29.55;;;5.60;99.90;;;;;;5000242;28;20257;-76
2022/01/26 13:06:24;;;;;;;62.28;27.38;;;4.40;99.90;;;;;;5011344;28;20534;-76
2022/01/26 13:08:55;;;;;;;69.65;28.13;;;4.60;99.90;;;;;;4992789;28;20674;-76
2022/01/26 13:11:34;;;;;;;64.25;27.73;;;4.60;99.90;;;;;;5005080;28;20704;-76
2022/01/26 13:14:17;;;;;;;73.15;28.27;;;4.60;99.90;;;;;;5008061;28;20045;-76
2022/01/26 13:17:46;;;;;;;74.13;30.20;;;4.60;99.90;;;;;;4988264;28;20545;-76
2022/01/26 13:21:05;;;;;;;69.22;27.60;;;4.60;99.90;;;;;;5001754;28;20498;-76
2022/01/26 13:26:02;;;;;;;63.17;27.02;;;4.70;99.90;;;;;;5006840;28;20054;-77
2022/01/26 13:39:48;;;;;;;58.88;25.60;;;4.80;99.90;;;;;;5000225;28;20049;-77
2022/01/26 13:45:24;;;;;;;63.28;26.90;;;4.90;99.90;;;;;;5011350;28;20049;-75
2022/01/26 13:53:09;;;;;;;59.65;24.45;;;4.90;99.90;;;;;;5024171;28;20053;-76
2022/01/26 14:00:31;;;;;;;57.67;24.08;;;4.90;99.90;;;;;;5011516;28;20663;-76
2022/01/26 14:03:01;;;;;;;58.35;25.30;;;5.00;99.90;;;;;;5015679;28;20042;-76
2022/01/26 14:05:27;;;;;;;61.65;25.05;;;5.00;99.90;;;;;;4989273;28;20533;-76
2022/01/26 14:07:56;;;;;;;68.18;24.92;;;5.00;99.90;;;;;;4993104;28;20131;-76
2022/01/26 14:10:22;;;;;;;61.35;24.83;;;5.00;99.90;;;;;;5002642;28;20049;-76
2022/01/26 14:12:49;;;;;;;62.58;25.35;;;5.10;99.90;;;;;;5019418;28;20136;-76
2022/01/26 14:15:21;;;;;;;65.45;25.95;;;5.10;99.90;;;;;;5000657;28;20054;-76
2022/01/26 14:18:01;;;;;;;58.60;23.88;;;5.10;99.90;;;;;;5002926;28;20046;-76
2022/01/26 14:20:48;;;;;;;54.92;23.63;;;5.10;99.90;;;;;;5007539;28;20083;-76
2022/01/26 14:23:19;;;;;;;58.58;23.98;;;5.10;99.90;;;;;;5004848;28;20734;-76
2022/01/26 14:25:48;;;;;;;65.25;24.60;;;5.10;99.90;;;;;;5002863;28;20049;-76
2022/01/26 14:28:18;;;;;;;57.53;22.77;;;5.10;99.90;;;;;;5005189;28;20421;-76
2022/01/26 14:33:42;;;;;;;59.50;24.38;;;5.60;99.90;;;;;;5021073;28;20107;-76
2022/01/26 14:52:02;;;;;;;62.63;24.70;;;5.20;99.90;;;;;;5020035;28;20404;-76
2022/01/26 15:19:27;;;;;;;59.55;24.63;;;5.10;99.90;;;;;;5016424;28;20600;-76
2022/01/26 15:30:17;;;;;;;62.00;25.20;;;5.20;99.90;;;;;;5007191;28;20323;-75
2022/01/26 15:35:50;;;;;;;64.55;25.42;;;5.60;99.90;;;;;;5006064;28;20046;-75
2022/01/26 15:41:15;;;;;;;65.82;24.65;;;5.20;99.90;;;;;;5007483;28;20046;-76
2022/01/26 15:44:06;;;;;;;61.10;25.15;;;5.20;99.90;;;;;;5020787;28;20053;-75
2022/01/26 15:49:44;;;;;;;63.47;26.30;;;5.20;99.90;;;;;;5004543;28;20096;-73
2022/01/26 15:52:35;;;;;;;72.30;25.20;;;5.20;99.90;;;;;;5010220;28;20056;-76
2022/01/26 16:06:03;;;;;;;67.15;25.52;;;5.20;99.90;;;;;;5021193;28;20389;-75
2022/01/26 16:26:17;;;;;;;58.63;25.33;;;5.10;99.90;;;;;;5015260;28;20057;-75
2022/01/26 16:36:04;;;;;;;61.92;22.75;;;5.20;99.90;;;;;;5033041;28;20197;-76
2022/01/26 16:38:51;;;;;;;57.90;22.92;;;5.20;99.90;;;;;;5018013;28;20038;-76
2022/01/26 16:52:41;;;;;;;48.97;21.48;;;5.30;99.90;;;;;;5014875;28;20052;-75
2022/01/26 17:11:22;;;;;;;52.70;21.05;;;5.40;99.90;;;;;;5023073;28;20041;-75
2022/01/26 17:46:40;;;;;;;46.00;19.92;;;5.50;99.90;;;;;;5040062;28;20517;-76
2022/01/26 18:06:43;;;;;;;50.50;21.23;;;5.50;99.90;;;;;;5010447;28;20125;-75
2022/01/26 18:15:14;;;;;;;49.08;20.63;;;5.60;99.90;;;;;;5018249;28;20089;-75
2022/01/26 18:16:57;;;;;;;44.95;20.25;;;5.60;99.90;;;;;;5014513;28;20049;-75
2022/01/26 18:33:13;;;;;;;37.63;17.67;;;5.70;99.90;;;;;;5010490;28;20071;-75
2022/01/26 18:49:18;;;;;;;43.13;18.80;;;5.70;99.90;;;;;;5024749;28;20064;-76
2022/01/26 18:51:58;;;;;;;47.40;18.63;;;5.70;99.90;;;;;;5011482;28;20045;-76
2022/01/26 18:54:35;;;;;;;44.15;18.65;;;5.70;99.90;;;;;;5008256;28;20509;-76
2022/01/26 18:57:04;;;;;;;44.22;19.13;;;5.70;99.90;;;;;;5022250;28;20063;-76
2022/01/26 18:59:30;;;;;;;37.92;17.92;;;5.70;99.90;;;;;;5006712;28;20047;-76
2022/01/26 19:01:57;;;;;;;42.45;18.63;;;5.70;99.90;;;;;;4999534;28;20555;-76